createdAt,value
2018-02-04T00:01:29.347Z,70.60
2018-02-04T00:04:10.849Z,70.70
2018-02-04T00:06:42.864Z,70.50
2018-02-04T00:09:13.435Z,70.80
2018-02-04T05:54:18.303Z,90.00
2018-02-04T06:04:52.934Z,91.10
2018-02-04T06:12:42.059Z,85.90
2018-02-04T06:15:19.672Z,86.30
2018-02-04T06:20:38.126Z,89.00
2018-02-04T06:23:12.770Z,89.10
2018-02-04T06:25:44.860Z,91.00
2018-02-04T06:30:58.341Z,91.20
2018-02-04T06:36:06.528Z,91.00
2018-02-04T06:38:36.873Z,91.00
2018-02-04T06:41:05.381Z,91.00
2018-02-04T06:43:34.646Z,87.10
2018-02-04T06:46:08.126Z,86.30
2018-02-04T06:48:39.550Z,88.30
2018-02-04T06:51:09.210Z,89.40
2018-02-04T06:53:41.456Z,90.80
2018-02-04T06:56:11.110Z,90.80
2018-02-04T06:58:39.688Z,90.40
2018-02-04T07:01:11.893Z,91.10
2018-02-04T07:03:41.292Z,91.10
2018-02-04T07:06:11.129Z,91.50
2018-02-04T07:08:40.439Z,84.60
2018-02-04T07:11:10.250Z,82.50
2018-02-04T07:13:41.682Z,82.50
2018-02-04T07:16:12.069Z,83.10
2018-02-04T07:18:40.552Z,84.60
2018-02-04T07:21:08.739Z,88.20
2018-02-04T07:23:51.761Z,88.00
2018-02-04T07:26:19.951Z,87.30
2018-02-04T07:28:48.902Z,87.30
2018-02-04T07:31:17.829Z,88.30
2018-02-04T07:33:47.556Z,88.30
2018-02-04T07:36:16.057Z,88.40
2018-02-04T07:38:46.655Z,87.20
2018-02-04T07:41:17.727Z,84.60
2018-02-04T07:43:46.907Z,84.60
2018-02-04T07:46:18.039Z,83.80
2018-02-04T07:48:48.275Z,80.40
2018-02-04T07:51:17.206Z,80.70
2018-02-04T07:53:46.224Z,79.20
2018-02-04T07:56:14.378Z,79.70
2018-02-04T07:58:45.174Z,76.00
2018-02-04T08:01:13.336Z,76.00
2018-02-04T08:03:41.570Z,76.20
2018-02-04T08:06:09.750Z,77.40
2018-02-04T08:08:39.977Z,76.30
2018-02-04T08:11:08.190Z,76.40
2018-02-04T08:13:36.347Z,73.40
2018-02-04T08:16:04.548Z,72.20
2018-02-04T08:18:33.140Z,71.10
2018-02-04T08:21:04.770Z,68.60
2018-02-04T08:23:36.176Z,71.30
2018-02-04T08:26:11.318Z,69.00
2018-02-04T08:28:42.273Z,67.30
2018-02-04T08:31:12.249Z,68.30
2018-02-04T08:33:40.423Z,69.10
2018-02-04T08:36:09.502Z,70.30
2018-02-04T08:38:37.959Z,71.00
2018-02-04T08:41:06.820Z,71.90
2018-02-04T08:43:38.687Z,72.10
2018-02-04T08:46:08.309Z,70.40
2018-02-04T08:51:20.376Z,71.40
2018-02-04T08:53:48.850Z,72.90
2018-02-04T08:56:17.879Z,72.80
2018-02-04T08:58:48.431Z,72.80
2018-02-04T09:01:18.151Z,72.80
2018-02-04T09:03:47.237Z,73.60
2018-02-04T09:06:15.403Z,74.80
2018-02-04T09:08:44.603Z,75.60
2018-02-04T09:11:14.382Z,77.90
2018-02-04T09:13:43.305Z,78.40
2018-02-04T09:16:19.157Z,78.20
2018-02-04T09:18:50.380Z,77.50
2018-02-04T09:21:19.015Z,77.10
2018-02-04T09:23:49.760Z,71.30
2018-02-04T09:29:25.061Z,74.40
2018-02-04T09:49:56.417Z,63.20
2018-02-04T09:58:47.900Z,55.50
2018-02-04T10:01:30.788Z,53.00
2018-02-04T10:19:01.256Z,54.60
2018-02-04T10:21:33.695Z,56.10
2018-02-04T10:24:08.019Z,56.70
2018-02-04T10:26:38.376Z,57.20
2018-02-04T10:29:11.453Z,57.80
2018-02-04T10:40:44.135Z,52.90
2018-02-04T11:31:19.876Z,47.70
2018-02-04T11:33:48.043Z,47.70
2018-02-04T11:36:19.218Z,46.30
2018-02-04T11:38:47.481Z,42.90
2018-02-04T11:41:18.525Z,42.10
2018-02-04T11:43:47.742Z,43.60
2018-02-04T11:46:18.208Z,40.80
2018-02-04T11:48:48.188Z,44.70
2018-02-04T11:51:18.557Z,43.60
2018-02-04T11:53:54.964Z,47.30
2018-02-04T11:56:29.809Z,47.30
2018-02-04T11:58:58.548Z,44.70
2018-02-04T12:01:27.979Z,45.00
2018-02-04T12:04:02.154Z,45.00
2018-02-04T12:14:30.055Z,45.50
2018-02-04T12:22:33.386Z,47.60
2018-02-04T12:25:02.385Z,45.20
2018-02-04T12:27:30.704Z,46.10
2018-02-04T12:30:00.108Z,43.60
2018-02-04T12:32:29.564Z,44.00
2018-02-04T12:34:58.744Z,42.80
2018-02-04T12:37:31.909Z,43.70
2018-02-04T12:40:01.262Z,43.70
2018-02-04T12:42:58.513Z,44.00
2018-02-04T12:45:48.508Z,44.00
2018-02-04T12:48:18.047Z,43.00
2018-02-04T12:50:46.424Z,42.90
2018-02-04T13:04:56.477Z,38.60
2018-02-04T13:10:23.059Z,41.40
2018-02-04T13:12:54.332Z,38.40
2018-02-04T13:15:26.335Z,36.80
2018-02-04T13:18:08.279Z,36.70
2018-02-04T13:20:40.853Z,36.20
2018-02-04T13:29:08.611Z,39.80
2018-02-04T13:34:38.433Z,40.40
2018-02-04T13:37:25.243Z,40.20
2018-02-04T13:39:55.324Z,39.60
2018-02-04T13:42:25.940Z,39.70
2018-02-04T13:45:00.108Z,42.90
2018-02-04T14:15:23.623Z,55.00
2018-02-04T14:27:40.921Z,65.00
2018-02-04T15:03:50.508Z,73.50
2018-02-04T15:24:15.620Z,74.70
2018-02-04T17:26:41.150Z,71.20
2018-02-04T17:51:35.051Z,70.80
2018-02-04T17:54:19.805Z,71.40
2018-02-04T17:59:51.524Z,75.00
2018-02-04T18:02:20.644Z,74.60
2018-02-04T18:04:49.057Z,74.10
2018-02-04T18:07:21.309Z,71.00
2018-02-04T18:09:49.470Z,72.20
2018-02-04T18:12:20.073Z,73.30
2018-02-04T18:14:48.236Z,72.20
2018-02-04T18:17:17.072Z,74.10
2018-02-04T18:20:00.717Z,74.80
2018-02-04T18:25:35.463Z,74.00
2018-02-04T18:28:04.465Z,72.30
2018-02-04T18:30:34.974Z,73.10
2018-02-04T18:33:06.996Z,74.60
2018-02-04T18:35:39.049Z,75.80
2018-02-04T18:38:07.868Z,73.20
2018-02-04T18:40:36.789Z,70.90
2018-02-04T18:43:07.019Z,70.90
2018-02-04T18:45:35.177Z,71.00
2018-02-04T18:48:05.454Z,73.20
2018-02-04T18:50:35.119Z,72.90
2018-02-04T18:53:03.292Z,72.80
2018-02-04T18:58:09.554Z,73.60
2018-02-04T19:00:37.763Z,73.70
2018-02-04T19:03:08.321Z,74.60
2018-02-04T19:05:37.498Z,73.60
2018-02-04T19:08:13.124Z,73.80
2018-02-04T19:10:42.244Z,76.80
2018-02-04T19:13:11.234Z,74.40
2018-02-04T19:15:40.400Z,73.80
2018-02-04T19:18:09.753Z,74.50
2018-02-04T19:20:39.847Z,74.10
2018-02-04T19:23:11.116Z,74.90
2018-02-04T19:25:42.521Z,75.40
2018-02-04T19:28:11.831Z,75.40
2018-02-04T19:30:39.977Z,76.60
2018-02-04T19:33:08.138Z,75.90
2018-02-04T19:35:37.817Z,76.70
2018-02-04T19:38:07.756Z,76.70
2018-02-04T19:40:37.567Z,75.70
2018-02-04T19:43:07.347Z,77.40
2018-02-04T19:45:35.501Z,77.30
2018-02-04T19:48:04.571Z,77.70
2018-02-04T19:50:32.777Z,76.70
2018-02-04T19:53:01.000Z,75.60
2018-02-04T19:55:30.411Z,77.10
2018-02-04T19:58:00.648Z,77.00
2018-02-04T20:00:28.835Z,76.70
2018-02-04T20:02:58.855Z,80.20
2018-02-04T20:05:27.017Z,78.80
2018-02-04T20:07:55.580Z,78.00
2018-02-04T20:10:24.511Z,78.60
2018-02-04T20:12:52.734Z,78.60
2018-02-04T20:15:21.567Z,79.50
2018-02-04T20:17:49.827Z,78.80
2018-02-04T20:20:17.989Z,78.20
2018-02-04T20:22:46.153Z,78.10
2018-02-04T20:25:40.647Z,78.50
2018-02-04T20:44:17.165Z,80.90
2018-02-04T20:46:50.859Z,83.10
2018-02-04T20:49:19.041Z,83.10
2018-02-04T20:51:48.208Z,83.10
2018-02-04T20:54:17.246Z,81.30
2018-02-04T20:56:46.230Z,80.80
2018-02-04T20:59:14.960Z,80.60
2018-02-04T21:01:44.590Z,81.50
2018-02-04T21:04:12.897Z,81.50
2018-02-04T21:06:41.119Z,82.10
2018-02-04T21:09:09.579Z,82.80
2018-02-04T21:11:38.679Z,83.50
2018-02-04T21:14:07.688Z,82.60
2018-02-04T21:16:35.860Z,83.10
2018-02-04T21:19:04.818Z,82.70
2018-02-04T21:21:33.027Z,81.40
2018-02-04T21:24:01.172Z,81.30
2018-02-04T21:29:20.003Z,81.40
2018-02-04T21:31:50.545Z,81.40
2018-02-04T21:37:02.222Z,83.40
2018-02-04T21:39:31.109Z,83.70
2018-02-04T21:42:06.666Z,84.20
2018-02-04T21:44:39.614Z,84.20
2018-02-04T21:47:10.431Z,85.50
2018-02-04T21:49:41.150Z,84.30
2018-02-04T21:52:09.668Z,82.00
2018-02-04T21:54:41.953Z,80.80
2018-02-04T21:57:16.988Z,81.90
2018-02-04T21:59:52.795Z,81.40
2018-02-04T22:02:27.710Z,82.60
2018-02-04T22:04:59.670Z,81.90
2018-02-04T22:07:32.089Z,81.80
2018-02-04T22:10:05.771Z,80.70
2018-02-04T22:12:37.940Z,81.10
2018-02-04T22:15:08.228Z,81.00
2018-02-04T22:17:41.577Z,82.60
2018-02-04T22:20:14.408Z,82.60
2018-02-04T22:22:49.075Z,82.30
2018-02-04T22:30:34.332Z,80.50
2018-02-04T22:35:48.261Z,82.50
2018-02-04T22:38:21.194Z,81.30
2018-02-04T22:40:50.691Z,79.80
2018-02-04T22:46:08.164Z,80.70
2018-02-04T22:56:35.185Z,78.90
2018-02-04T22:59:06.483Z,80.60
2018-02-04T23:04:21.944Z,77.90
2018-02-04T23:06:55.038Z,77.90
2018-02-04T23:25:04.799Z,79.90
2018-02-04T23:27:38.747Z,79.50
2018-02-04T23:32:44.283Z,81.40
2018-02-04T23:35:17.755Z,81.50
2018-02-04T23:37:50.918Z,80.70
2018-02-04T23:40:21.900Z,78.70
2018-02-04T23:45:34.795Z,77.40
2018-02-04T23:48:05.488Z,75.90
2018-02-04T23:50:35.456Z,74.90
2018-02-04T23:53:11.189Z,75.90
2018-02-04T23:58:21.425Z,78.20
